sensor_id;sensor_type;location;lat;lon;timestamp;P1;durP1;ratioP1;P2;durP2;ratioP2
19780;SDS011;10050;55.492;13.506;2023-08-31T00:00:12;1.80;;;1.70;;
19780;SDS011;10050;55.492;13.506;2023-08-31T00:02:38;1.50;;;1.40;;
19780;SDS011;10050;55.492;13.506;2023-08-31T00:05:05;2.27;;;1.80;;
19780;SDS011;10050;55.492;13.506;2023-08-31T00:07:31;1.20;;;1.20;;
19780;SDS011;10050;55.492;13.506;2023-08-31T00:09:57;1.70;;;1.60;;
19780;SDS011;10050;55.492;13.506;2023-08-31T00:12:23;1.87;;;1.60;;
19780;SDS011;10050;55.492;13.506;2023-08-31T00:14:49;4.60;;;1.60;;
19780;SDS011;10050;55.492;13.506;2023-08-31T00:17:15;1.77;;;1.67;;
19780;SDS011;10050;55.492;13.506;2023-08-31T00:19:42;1.87;;;1.60;;
19780;SDS011;10050;55.492;13.506;2023-08-31T00:22:08;2.17;;;1.80;;
19780;SDS011;10050;55.492;13.506;2023-08-31T00:24:34;1.70;;;1.60;;
19780;SDS011;10050;55.492;13.506;2023-08-31T00:27:01;2.00;;;1.90;;
19780;SDS011;10050;55.492;13.506;2023-08-31T00:29:28;1.60;;;1.50;;
19780;SDS011;10050;55.492;13.506;2023-08-31T00:31:54;1.50;;;1.40;;
19780;SDS011;10050;55.492;13.506;2023-08-31T00:34:20;1.67;;;1.57;;
19780;SDS011;10050;55.492;13.506;2023-08-31T00:36:46;1.70;;;1.60;;
19780;SDS011;10050;55.492;13.506;2023-08-31T00:39:13;2.83;;;1.60;;
19780;SDS011;10050;55.492;13.506;2023-08-31T00:41:39;2.27;;;1.90;;
19780;SDS011;10050;55.492;13.506;2023-08-31T00:44:05;2.17;;;1.70;;
19780;SDS011;10050;55.492;13.506;2023-08-31T00:46:34;2.20;;;1.30;;
19780;SDS011;10050;55.492;13.506;2023-08-31T00:49:01;2.33;;;1.80;;
19780;SDS011;10050;55.492;13.506;2023-08-31T00:51:29;1.67;;;1.57;;
19780;SDS011;10050;55.492;13.506;2023-08-31T00:53:55;1.60;;;1.50;;
19780;SDS011;10050;55.492;13.506;2023-08-31T00:56:20;1.70;;;1.60;;
19780;SDS011;10050;55.492;13.506;2023-08-31T00:58:46;2.93;;;1.70;;
19780;SDS011;10050;55.492;13.506;2023-08-31T01:01:21;2.33;;;1.57;;
19780;SDS011;10050;55.492;13.506;2023-08-31T01:04:03;1.90;;;1.80;;
19780;SDS011;10050;55.492;13.506;2023-08-31T01:09:38;1.80;;;1.70;;
19780;SDS011;10050;55.492;13.506;2023-08-31T01:12:29;1.70;;;1.60;;
19780;SDS011;10050;55.492;13.506;2023-08-31T01:15:06;1.70;;;1.60;;
19780;SDS011;10050;55.492;13.506;2023-08-31T01:17:44;1.67;;;1.57;;
19780;SDS011;10050;55.492;13.506;2023-08-31T01:20:14;1.70;;;1.60;;
19780;SDS011;10050;55.492;13.506;2023-08-31T01:25:29;1.60;;;1.50;;
19780;SDS011;10050;55.492;13.506;2023-08-31T01:27:56;2.20;;;2.00;;
19780;SDS011;10050;55.492;13.506;2023-08-31T01:30:23;3.03;;;1.90;;
19780;SDS011;10050;55.492;13.506;2023-08-31T01:32:49;3.27;;;1.70;;
19780;SDS011;10050;55.492;13.506;2023-08-31T01:35:15;1.90;;;1.80;;
19780;SDS011;10050;55.492;13.506;2023-08-31T01:37:59;2.27;;;2.00;;
19780;SDS011;10050;55.492;13.506;2023-08-31T01:40:32;1.83;;;1.73;;
19780;SDS011;10050;55.492;13.506;2023-08-31T01:43:05;1.80;;;1.70;;
19780;SDS011;10050;55.492;13.506;2023-08-31T01:45:32;3.33;;;1.63;;
19780;SDS011;10050;55.492;13.506;2023-08-31T01:47:59;3.10;;;1.90;;
19780;SDS011;10050;55.492;13.506;2023-08-31T01:50:25;1.53;;;1.43;;
19780;SDS011;10050;55.492;13.506;2023-08-31T01:52:51;1.70;;;1.60;;
19780;SDS011;10050;55.492;13.506;2023-08-31T01:55:18;2.20;;;2.10;;
19780;SDS011;10050;55.492;13.506;2023-08-31T01:57:44;3.30;;;1.63;;
19780;SDS011;10050;55.492;13.506;2023-08-31T02:00:10;2.47;;;1.67;;
19780;SDS011;10050;55.492;13.506;2023-08-31T02:02:36;2.70;;;1.70;;
19780;SDS011;10050;55.492;13.506;2023-08-31T02:05:02;1.70;;;1.60;;
19780;SDS011;10050;55.492;13.506;2023-08-31T02:07:29;1.90;;;1.80;;
19780;SDS011;10050;55.492;13.506;2023-08-31T02:09:55;1.90;;;1.67;;
19780;SDS011;10050;55.492;13.506;2023-08-31T02:12:20;2.13;;;1.90;;
19780;SDS011;10050;55.492;13.506;2023-08-31T02:14:47;1.83;;;1.73;;
19780;SDS011;10050;55.492;13.506;2023-08-31T02:17:12;2.27;;;2.07;;
19780;SDS011;10050;55.492;13.506;2023-08-31T02:19:38;2.77;;;1.90;;
19780;SDS011;10050;55.492;13.506;2023-08-31T02:22:04;1.90;;;1.80;;
19780;SDS011;10050;55.492;13.506;2023-08-31T02:24:29;2.30;;;2.10;;
19780;SDS011;10050;55.492;13.506;2023-08-31T02:26:55;2.13;;;2.03;;
19780;SDS011;10050;55.492;13.506;2023-08-31T02:29:21;2.30;;;2.20;;
19780;SDS011;10050;55.492;13.506;2023-08-31T02:31:47;2.17;;;1.90;;
19780;SDS011;10050;55.492;13.506;2023-08-31T02:34:13;2.40;;;2.20;;
19780;SDS011;10050;55.492;13.506;2023-08-31T02:36:39;2.20;;;2.10;;
19780;SDS011;10050;55.492;13.506;2023-08-31T02:39:04;2.37;;;2.17;;
19780;SDS011;10050;55.492;13.506;2023-08-31T02:41:31;2.30;;;2.10;;
19780;SDS011;10050;55.492;13.506;2023-08-31T02:43:56;1.97;;;1.87;;
19780;SDS011;10050;55.492;13.506;2023-08-31T02:46:22;1.90;;;1.80;;
19780;SDS011;10050;55.492;13.506;2023-08-31T02:48:48;2.00;;;1.90;;
19780;SDS011;10050;55.492;13.506;2023-08-31T02:51:14;2.20;;;2.10;;
19780;SDS011;10050;55.492;13.506;2023-08-31T02:53:40;2.30;;;2.20;;
19780;SDS011;10050;55.492;13.506;2023-08-31T02:56:06;1.93;;;1.83;;
19780;SDS011;10050;55.492;13.506;2023-08-31T02:58:32;2.40;;;2.20;;
19780;SDS011;10050;55.492;13.506;2023-08-31T03:01:10;1.93;;;1.53;;
19780;SDS011;10050;55.492;13.506;2023-08-31T03:03:37;2.03;;;1.93;;
19780;SDS011;10050;55.492;13.506;2023-08-31T03:06:05;2.00;;;1.90;;
19780;SDS011;10050;55.492;13.506;2023-08-31T03:08:34;2.77;;;2.10;;
19780;SDS011;10050;55.492;13.506;2023-08-31T03:11:01;2.03;;;1.93;;
19780;SDS011;10050;55.492;13.506;2023-08-31T03:13:28;2.13;;;2.03;;
19780;SDS011;10050;55.492;13.506;2023-08-31T03:15:53;2.77;;;2.57;;
19780;SDS011;10050;55.492;13.506;2023-08-31T03:18:19;2.10;;;2.00;;
19780;SDS011;10050;55.492;13.506;2023-08-31T03:20:45;2.40;;;2.30;;
19780;SDS011;10050;55.492;13.506;2023-08-31T03:23:10;2.17;;;2.07;;
19780;SDS011;10050;55.492;13.506;2023-08-31T03:25:36;2.30;;;2.20;;
19780;SDS011;10050;55.492;13.506;2023-08-31T03:28:02;2.83;;;2.63;;
19780;SDS011;10050;55.492;13.506;2023-08-31T03:30:28;2.63;;;2.43;;
19780;SDS011;10050;55.492;13.506;2023-08-31T03:32:54;3.40;;;2.30;;
19780;SDS011;10050;55.492;13.506;2023-08-31T03:35:19;2.00;;;1.90;;
19780;SDS011;10050;55.492;13.506;2023-08-31T03:37:49;2.77;;;2.57;;
19780;SDS011;10050;55.492;13.506;2023-08-31T03:40:14;2.73;;;2.53;;
19780;SDS011;10050;55.492;13.506;2023-08-31T03:42:40;2.63;;;2.43;;
19780;SDS011;10050;55.492;13.506;2023-08-31T03:45:06;3.00;;;2.80;;
19780;SDS011;10050;55.492;13.506;2023-08-31T03:47:31;4.00;;;2.43;;
19780;SDS011;10050;55.492;13.506;2023-08-31T03:49:57;2.30;;;2.20;;
19780;SDS011;10050;55.492;13.506;2023-08-31T03:52:23;2.80;;;2.60;;
19780;SDS011;10050;55.492;13.506;2023-08-31T03:54:49;2.70;;;2.50;;
19780;SDS011;10050;55.492;13.506;2023-08-31T03:57:16;3.63;;;2.93;;
19780;SDS011;10050;55.492;13.506;2023-08-31T03:59:41;3.17;;;2.60;;
19780;SDS011;10050;55.492;13.506;2023-08-31T04:02:07;2.73;;;2.30;;
19780;SDS011;10050;55.492;13.506;2023-08-31T04:04:33;3.00;;;2.80;;
19780;SDS011;10050;55.492;13.506;2023-08-31T04:06:59;3.73;;;2.97;;
19780;SDS011;10050;55.492;13.506;2023-08-31T04:09:25;4.13;;;2.80;;
19780;SDS011;10050;55.492;13.506;2023-08-31T04:11:52;3.20;;;3.00;;
19780;SDS011;10050;55.492;13.506;2023-08-31T04:14:17;3.23;;;2.90;;
19780;SDS011;10050;55.492;13.506;2023-08-31T04:16:46;2.83;;;2.67;;
19780;SDS011;10050;55.492;13.506;2023-08-31T04:19:14;3.43;;;3.13;;
19780;SDS011;10050;55.492;13.506;2023-08-31T04:21:40;3.00;;;2.23;;
19780;SDS011;10050;55.492;13.506;2023-08-31T04:24:05;2.73;;;2.53;;
19780;SDS011;10050;55.492;13.506;2023-08-31T04:26:31;3.07;;;2.87;;
19780;SDS011;10050;55.492;13.506;2023-08-31T04:28:57;3.43;;;3.13;;
19780;SDS011;10050;55.492;13.506;2023-08-31T04:31:22;2.60;;;2.50;;
19780;SDS011;10050;55.492;13.506;2023-08-31T04:33:48;3.13;;;2.93;;
19780;SDS011;10050;55.492;13.506;2023-08-31T04:36:18;4.37;;;2.80;;
19780;SDS011;10050;55.492;13.506;2023-08-31T04:38:47;3.00;;;2.70;;
19780;SDS011;10050;55.492;13.506;2023-08-31T04:41:14;3.27;;;2.97;;
19780;SDS011;10050;55.492;13.506;2023-08-31T04:43:40;4.63;;;2.80;;
19780;SDS011;10050;55.492;13.506;2023-08-31T04:46:05;2.90;;;2.70;;
19780;SDS011;10050;55.492;13.506;2023-08-31T04:48:31;2.57;;;2.37;;
19780;SDS011;10050;55.492;13.506;2023-08-31T04:50:57;2.87;;;2.63;;
19780;SDS011;10050;55.492;13.506;2023-08-31T04:53:23;3.03;;;2.63;;
19780;SDS011;10050;55.492;13.506;2023-08-31T04:55:49;2.80;;;2.60;;
19780;SDS011;10050;55.492;13.506;2023-08-31T04:58:15;2.77;;;2.50;;
19780;SDS011;10050;55.492;13.506;2023-08-31T05:00:40;2.47;;;2.27;;
19780;SDS011;10050;55.492;13.506;2023-08-31T05:03:06;2.83;;;2.50;;
19780;SDS011;10050;55.492;13.506;2023-08-31T05:05:31;3.27;;;2.40;;
19780;SDS011;10050;55.492;13.506;2023-08-31T05:07:57;2.57;;;2.37;;
19780;SDS011;10050;55.492;13.506;2023-08-31T05:10:24;3.00;;;2.60;;
19780;SDS011;10050;55.492;13.506;2023-08-31T05:12:49;2.53;;;2.30;;
19780;SDS011;10050;55.492;13.506;2023-08-31T05:15:15;2.53;;;2.20;;
19780;SDS011;10050;55.492;13.506;2023-08-31T05:17:41;2.23;;;2.03;;
19780;SDS011;10050;55.492;13.506;2023-08-31T05:20:07;2.90;;;2.10;;
19780;SDS011;10050;55.492;13.506;2023-08-31T05:22:34;2.03;;;1.93;;
19780;SDS011;10050;55.492;13.506;2023-08-31T05:25:00;2.17;;;1.90;;
19780;SDS011;10050;55.492;13.506;2023-08-31T05:27:26;2.97;;;1.73;;
19780;SDS011;10050;55.492;13.506;2023-08-31T05:29:52;2.63;;;2.43;;
19780;SDS011;10050;55.492;13.506;2023-08-31T05:32:17;3.77;;;2.53;;
19780;SDS011;10050;55.492;13.506;2023-08-31T05:34:43;2.30;;;2.20;;
19780;SDS011;10050;55.492;13.506;2023-08-31T05:37:08;3.00;;;2.67;;
19780;SDS011;10050;55.492;13.506;2023-08-31T05:39:34;4.00;;;2.30;;
19780;SDS011;10050;55.492;13.506;2023-08-31T05:42:00;2.20;;;2.10;;
19780;SDS011;10050;55.492;13.506;2023-08-31T05:44:26;2.40;;;2.20;;
19780;SDS011;10050;55.492;13.506;2023-08-31T05:46:51;3.87;;;3.50;;
19780;SDS011;10050;55.492;13.506;2023-08-31T05:49:17;2.40;;;2.20;;
19780;SDS011;10050;55.492;13.506;2023-08-31T05:51:43;2.80;;;2.60;;
19780;SDS011;10050;55.492;13.506;2023-08-31T05:54:08;2.83;;;2.57;;
19780;SDS011;10050;55.492;13.506;2023-08-31T05:56:37;4.40;;;4.00;;
19780;SDS011;10050;55.492;13.506;2023-08-31T05:59:04;5.90;;;5.40;;
19780;SDS011;10050;55.492;13.506;2023-08-31T06:01:31;7.50;;;6.80;;
19780;SDS011;10050;55.492;13.506;2023-08-31T06:03:57;6.93;;;6.23;;
19780;SDS011;10050;55.492;13.506;2023-08-31T06:06:28;6.90;;;6.20;;
19780;SDS011;10050;55.492;13.506;2023-08-31T06:08:54;7.77;;;7.00;;
19780;SDS011;10050;55.492;13.506;2023-08-31T06:11:21;7.07;;;6.50;;
19780;SDS011;10050;55.492;13.506;2023-08-31T06:13:47;7.53;;;6.83;;
19780;SDS011;10050;55.492;13.506;2023-08-31T06:16:13;7.10;;;6.43;;
19780;SDS011;10050;55.492;13.506;2023-08-31T06:18:38;8.47;;;7.67;;
19780;SDS011;10050;55.492;13.506;2023-08-31T06:21:04;10.17;;;7.40;;
19780;SDS011;10050;55.492;13.506;2023-08-31T06:23:29;8.57;;;7.67;;
19780;SDS011;10050;55.492;13.506;2023-08-31T06:25:55;10.17;;;8.63;;
19780;SDS011;10050;55.492;13.506;2023-08-31T06:28:21;9.07;;;8.17;;
19780;SDS011;10050;55.492;13.506;2023-08-31T06:30:46;8.70;;;7.90;;
19780;SDS011;10050;55.492;13.506;2023-08-31T06:33:13;8.17;;;7.47;;
19780;SDS011;10050;55.492;13.506;2023-08-31T06:35:39;8.00;;;7.20;;
19780;SDS011;10050;55.492;13.506;2023-08-31T06:38:05;7.57;;;6.87;;
19780;SDS011;10050;55.492;13.506;2023-08-31T06:40:30;7.60;;;6.90;;
19780;SDS011;10050;55.492;13.506;2023-08-31T06:42:56;8.23;;;6.70;;
19780;SDS011;10050;55.492;13.506;2023-08-31T06:45:22;7.73;;;6.30;;
19780;SDS011;10050;55.492;13.506;2023-08-31T06:47:48;7.73;;;7.03;;
19780;SDS011;10050;55.492;13.506;2023-08-31T06:50:13;7.87;;;7.17;;
19780;SDS011;10050;55.492;13.506;2023-08-31T06:52:39;8.17;;;6.57;;
19780;SDS011;10050;55.492;13.506;2023-08-31T06:55:06;8.83;;;6.00;;
19780;SDS011;10050;55.492;13.506;2023-08-31T06:57:32;6.20;;;5.60;;
19780;SDS011;10050;55.492;13.506;2023-08-31T06:59:57;8.00;;;6.20;;
19780;SDS011;10050;55.492;13.506;2023-08-31T07:02:25;7.30;;;6.63;;
19780;SDS011;10050;55.492;13.506;2023-08-31T07:04:51;6.70;;;6.10;;
19780;SDS011;10050;55.492;13.506;2023-08-31T07:07:17;8.03;;;7.20;;
19780;SDS011;10050;55.492;13.506;2023-08-31T07:09:43;7.97;;;7.17;;
19780;SDS011;10050;55.492;13.506;2023-08-31T07:12:11;8.20;;;7.50;;
19780;SDS011;10050;55.492;13.506;2023-08-31T07:14:36;7.77;;;7.13;;
19780;SDS011;10050;55.492;13.506;2023-08-31T07:17:02;7.23;;;6.53;;
19780;SDS011;10050;55.492;13.506;2023-08-31T07:19:28;6.53;;;6.00;;
19780;SDS011;10050;55.492;13.506;2023-08-31T07:21:53;6.50;;;5.77;;
19780;SDS011;10050;55.492;13.506;2023-08-31T07:24:24;5.67;;;5.17;;
19780;SDS011;10050;55.492;13.506;2023-08-31T07:26:50;5.40;;;4.90;;
19780;SDS011;10050;55.492;13.506;2023-08-31T07:29:16;4.83;;;4.33;;
19780;SDS011;10050;55.492;13.506;2023-08-31T07:31:41;5.40;;;4.83;;
19780;SDS011;10050;55.492;13.506;2023-08-31T07:34:07;5.03;;;4.53;;
19780;SDS011;10050;55.492;13.506;2023-08-31T07:36:33;9.13;;;4.90;;
19780;SDS011;10050;55.492;13.506;2023-08-31T07:38:59;4.70;;;4.30;;
19780;SDS011;10050;55.492;13.506;2023-08-31T07:41:24;5.93;;;4.90;;
19780;SDS011;10050;55.492;13.506;2023-08-31T07:43:50;4.40;;;3.67;;
19780;SDS011;10050;55.492;13.506;2023-08-31T07:46:15;5.37;;;4.73;;
19780;SDS011;10050;55.492;13.506;2023-08-31T07:48:43;6.17;;;5.10;;
19780;SDS011;10050;55.492;13.506;2023-08-31T07:51:09;6.17;;;4.90;;
19780;SDS011;10050;55.492;13.506;2023-08-31T07:53:34;5.30;;;4.63;;
19780;SDS011;10050;55.492;13.506;2023-08-31T07:56:00;5.10;;;4.70;;
19780;SDS011;10050;55.492;13.506;2023-08-31T07:58:26;7.73;;;4.70;;
19780;SDS011;10050;55.492;13.506;2023-08-31T08:00:52;4.70;;;4.27;;
19780;SDS011;10050;55.492;13.506;2023-08-31T08:03:18;4.93;;;3.70;;
19780;SDS011;10050;55.492;13.506;2023-08-31T08:05:44;3.67;;;3.00;;
19780;SDS011;10050;55.492;13.506;2023-08-31T08:08:10;3.50;;;3.20;;
19780;SDS011;10050;55.492;13.506;2023-08-31T08:10:36;3.50;;;3.20;;
19780;SDS011;10050;55.492;13.506;2023-08-31T08:13:01;3.60;;;3.07;;
19780;SDS011;10050;55.492;13.506;2023-08-31T08:15:28;4.53;;;2.77;;
19780;SDS011;10050;55.492;13.506;2023-08-31T08:17:55;7.13;;;2.93;;
19780;SDS011;10050;55.492;13.506;2023-08-31T08:20:22;3.67;;;3.30;;
19780;SDS011;10050;55.492;13.506;2023-08-31T08:22:48;5.70;;;3.50;;
19780;SDS011;10050;55.492;13.506;2023-08-31T08:25:17;4.17;;;2.97;;
19780;SDS011;10050;55.492;13.506;2023-08-31T08:27:46;2.73;;;1.77;;
19780;SDS011;10050;55.492;13.506;2023-08-31T08:30:12;2.07;;;1.90;;
19780;SDS011;10050;55.492;13.506;2023-08-31T08:32:38;4.70;;;2.10;;
19780;SDS011;10050;55.492;13.506;2023-08-31T08:35:04;2.60;;;2.37;;
19780;SDS011;10050;55.492;13.506;2023-08-31T08:37:30;3.50;;;2.40;;
19780;SDS011;10050;55.492;13.506;2023-08-31T08:39:58;3.57;;;2.63;;
19780;SDS011;10050;55.492;13.506;2023-08-31T08:42:24;3.30;;;2.90;;
19780;SDS011;10050;55.492;13.506;2023-08-31T08:44:50;5.83;;;3.00;;
19780;SDS011;10050;55.492;13.506;2023-08-31T08:47:17;4.33;;;2.77;;
19780;SDS011;10050;55.492;13.506;2023-08-31T08:49:43;5.40;;;2.90;;
19780;SDS011;10050;55.492;13.506;2023-08-31T08:52:09;3.30;;;2.20;;
19780;SDS011;10050;55.492;13.506;2023-08-31T08:54:36;2.87;;;1.70;;
19780;SDS011;10050;55.492;13.506;2023-08-31T08:57:02;1.57;;;1.40;;
19780;SDS011;10050;55.492;13.506;2023-08-31T08:59:29;2.00;;;1.43;;
19780;SDS011;10050;55.492;13.506;2023-08-31T09:01:56;1.83;;;1.47;;
19780;SDS011;10050;55.492;13.506;2023-08-31T09:04:22;3.90;;;1.90;;
19780;SDS011;10050;55.492;13.506;2023-08-31T09:06:47;4.43;;;2.03;;
19780;SDS011;10050;55.492;13.506;2023-08-31T09:09:15;4.90;;;2.03;;
19780;SDS011;10050;55.492;13.506;2023-08-31T09:11:42;3.97;;;2.40;;
19780;SDS011;10050;55.492;13.506;2023-08-31T09:14:20;3.03;;;2.40;;
19780;SDS011;10050;55.492;13.506;2023-08-31T09:16:46;2.23;;;1.90;;
19780;SDS011;10050;55.492;13.506;2023-08-31T09:19:23;2.03;;;1.70;;
19780;SDS011;10050;55.492;13.506;2023-08-31T09:21:55;4.73;;;2.03;;
19780;SDS011;10050;55.492;13.506;2023-08-31T09:24:21;2.40;;;2.03;;
19780;SDS011;10050;55.492;13.506;2023-08-31T09:26:52;2.57;;;1.63;;
19780;SDS011;10050;55.492;13.506;2023-08-31T09:29:21;2.27;;;1.47;;
19780;SDS011;10050;55.492;13.506;2023-08-31T09:31:47;1.80;;;1.60;;
19780;SDS011;10050;55.492;13.506;2023-08-31T09:34:16;4.83;;;1.97;;
19780;SDS011;10050;55.492;13.506;2023-08-31T09:36:43;4.87;;;1.90;;
19780;SDS011;10050;55.492;13.506;2023-08-31T09:39:10;3.90;;;2.13;;
19780;SDS011;10050;55.492;13.506;2023-08-31T09:41:56;3.87;;;2.20;;
19780;SDS011;10050;55.492;13.506;2023-08-31T09:44:21;3.37;;;2.00;;
19780;SDS011;10050;55.492;13.506;2023-08-31T09:46:47;2.53;;;2.07;;
19780;SDS011;10050;55.492;13.506;2023-08-31T09:49:14;2.63;;;1.60;;
19780;SDS011;10050;55.492;13.506;2023-08-31T09:51:41;2.10;;;1.70;;
19780;SDS011;10050;55.492;13.506;2023-08-31T09:54:12;2.80;;;1.90;;
19780;SDS011;10050;55.492;13.506;2023-08-31T09:56:39;3.60;;;2.00;;
19780;SDS011;10050;55.492;13.506;2023-08-31T09:59:08;2.37;;;1.73;;
19780;SDS011;10050;55.492;13.506;2023-08-31T10:01:37;2.47;;;2.00;;
19780;SDS011;10050;55.492;13.506;2023-08-31T10:04:03;2.60;;;2.10;;
19780;SDS011;10050;55.492;13.506;2023-08-31T10:06:31;2.00;;;1.90;;
19780;SDS011;10050;55.492;13.506;2023-08-31T10:08:57;2.10;;;1.90;;
19780;SDS011;10050;55.492;13.506;2023-08-31T10:11:24;2.37;;;1.73;;
19780;SDS011;10050;55.492;13.506;2023-08-31T10:13:50;2.50;;;1.60;;
19780;SDS011;10050;55.492;13.506;2023-08-31T10:16:18;1.70;;;1.60;;
19780;SDS011;10050;55.492;13.506;2023-08-31T10:18:45;1.70;;;1.40;;
19780;SDS011;10050;55.492;13.506;2023-08-31T10:21:10;2.03;;;1.50;;
19780;SDS011;10050;55.492;13.506;2023-08-31T10:23:47;2.17;;;1.50;;
19780;SDS011;10050;55.492;13.506;2023-08-31T10:26:31;1.40;;;1.30;;
19780;SDS011;10050;55.492;13.506;2023-08-31T10:28:58;3.53;;;1.40;;
19780;SDS011;10050;55.492;13.506;2023-08-31T10:31:27;1.90;;;1.47;;
19780;SDS011;10050;55.492;13.506;2023-08-31T10:34:01;1.33;;;1.23;;
19780;SDS011;10050;55.492;13.506;2023-08-31T10:36:47;1.70;;;1.20;;
19780;SDS011;10050;55.492;13.506;2023-08-31T10:39:16;1.20;;;1.10;;
19780;SDS011;10050;55.492;13.506;2023-08-31T10:41:53;1.87;;;1.70;;
19780;SDS011;10050;55.492;13.506;2023-08-31T10:44:26;2.17;;;1.20;;
19780;SDS011;10050;55.492;13.506;2023-08-31T10:46:55;2.00;;;1.80;;
19780;SDS011;10050;55.492;13.506;2023-08-31T10:49:25;2.97;;;1.30;;
19780;SDS011;10050;55.492;13.506;2023-08-31T10:52:00;2.47;;;1.70;;
19780;SDS011;10050;55.492;13.506;2023-08-31T10:54:43;2.20;;;1.57;;
19780;SDS011;10050;55.492;13.506;2023-08-31T10:57:11;1.57;;;1.43;;
19780;SDS011;10050;55.492;13.506;2023-08-31T10:59:45;1.50;;;1.40;;
19780;SDS011;10050;55.492;13.506;2023-08-31T11:07:31;1.63;;;1.30;;
19780;SDS011;10050;55.492;13.506;2023-08-31T11:10:07;1.47;;;1.37;;
19780;SDS011;10050;55.492;13.506;2023-08-31T11:12:33;1.93;;;1.60;;
19780;SDS011;10050;55.492;13.506;2023-08-31T11:14:59;1.40;;;1.30;;
19780;SDS011;10050;55.492;13.506;2023-08-31T11:17:24;1.77;;;1.20;;
19780;SDS011;10050;55.492;13.506;2023-08-31T11:19:50;1.30;;;1.20;;
19780;SDS011;10050;55.492;13.506;2023-08-31T11:22:16;1.50;;;1.20;;
19780;SDS011;10050;55.492;13.506;2023-08-31T11:24:41;1.23;;;1.23;;
19780;SDS011;10050;55.492;13.506;2023-08-31T11:27:08;1.40;;;1.30;;
19780;SDS011;10050;55.492;13.506;2023-08-31T11:29:44;3.17;;;1.43;;
19780;SDS011;10050;55.492;13.506;2023-08-31T11:32:10;1.47;;;1.33;;
19780;SDS011;10050;55.492;13.506;2023-08-31T11:34:39;1.37;;;1.27;;
19780;SDS011;10050;55.492;13.506;2023-08-31T11:37:07;1.30;;;1.20;;
19780;SDS011;10050;55.492;13.506;2023-08-31T11:39:32;1.30;;;1.20;;
19780;SDS011;10050;55.492;13.506;2023-08-31T11:41:58;1.70;;;1.50;;
19780;SDS011;10050;55.492;13.506;2023-08-31T11:44:26;3.73;;;1.20;;
19780;SDS011;10050;55.492;13.506;2023-08-31T11:46:51;1.83;;;1.63;;
19780;SDS011;10050;55.492;13.506;2023-08-31T11:49:17;2.93;;;1.80;;
19780;SDS011;10050;55.492;13.506;2023-08-31T11:51:44;1.53;;;1.40;;
19780;SDS011;10050;55.492;13.506;2023-08-31T11:54:10;1.20;;;1.20;;
19780;SDS011;10050;55.492;13.506;2023-08-31T11:59:12;1.63;;;1.40;;
19780;SDS011;10050;55.492;13.506;2023-08-31T12:01:40;1.30;;;1.20;;
19780;SDS011;10050;55.492;13.506;2023-08-31T12:04:10;1.50;;;1.40;;
19780;SDS011;10050;55.492;13.506;2023-08-31T12:06:47;2.10;;;1.87;;
19780;SDS011;10050;55.492;13.506;2023-08-31T12:09:21;1.87;;;1.77;;
19780;SDS011;10050;55.492;13.506;2023-08-31T12:11:52;3.27;;;1.80;;
19780;SDS011;10050;55.492;13.506;2023-08-31T12:14:22;1.67;;;1.50;;
19780;SDS011;10050;55.492;13.506;2023-08-31T12:16:49;1.80;;;1.70;;
19780;SDS011;10050;55.492;13.506;2023-08-31T12:19:15;1.80;;;1.33;;
19780;SDS011;10050;55.492;13.506;2023-08-31T12:21:42;1.67;;;1.57;;
19780;SDS011;10050;55.492;13.506;2023-08-31T12:24:11;2.57;;;1.33;;
19780;SDS011;10050;55.492;13.506;2023-08-31T12:26:37;1.67;;;1.57;;
19780;SDS011;10050;55.492;13.506;2023-08-31T12:29:04;1.67;;;1.57;;
19780;SDS011;10050;55.492;13.506;2023-08-31T12:31:30;1.70;;;1.60;;
19780;SDS011;10050;55.492;13.506;2023-08-31T12:33:56;2.30;;;1.63;;
19780;SDS011;10050;55.492;13.506;2023-08-31T12:36:21;1.97;;;1.50;;
19780;SDS011;10050;55.492;13.506;2023-08-31T12:38:47;1.53;;;1.43;;
19780;SDS011;10050;55.492;13.506;2023-08-31T12:41:13;2.03;;;1.80;;
19780;SDS011;10050;55.492;13.506;2023-08-31T12:43:38;1.83;;;1.60;;
19780;SDS011;10050;55.492;13.506;2023-08-31T12:46:04;2.33;;;1.63;;
19780;SDS011;10050;55.492;13.506;2023-08-31T12:48:31;1.57;;;1.47;;
19780;SDS011;10050;55.492;13.506;2023-08-31T12:50:57;1.50;;;1.40;;
19780;SDS011;10050;55.492;13.506;2023-08-31T12:53:23;1.93;;;1.50;;
19780;SDS011;10050;55.492;13.506;2023-08-31T12:55:49;2.00;;;1.80;;
19780;SDS011;10050;55.492;13.506;2023-08-31T12:58:15;1.60;;;1.50;;
19780;SDS011;10050;55.492;13.506;2023-08-31T13:00:44;2.10;;;1.87;;
19780;SDS011;10050;55.492;13.506;2023-08-31T13:03:15;1.50;;;1.40;;
19780;SDS011;10050;55.492;13.506;2023-08-31T13:05:41;1.67;;;1.57;;
19780;SDS011;10050;55.492;13.506;2023-08-31T13:08:07;1.50;;;1.40;;
19780;SDS011;10050;55.492;13.506;2023-08-31T13:10:34;1.93;;;1.40;;
19780;SDS011;10050;55.492;13.506;2023-08-31T13:12:59;1.80;;;1.70;;
19780;SDS011;10050;55.492;13.506;2023-08-31T13:15:25;1.60;;;1.50;;
19780;SDS011;10050;55.492;13.506;2023-08-31T13:17:51;1.53;;;1.40;;
19780;SDS011;10050;55.492;13.506;2023-08-31T13:20:16;2.53;;;1.80;;
19780;SDS011;10050;55.492;13.506;2023-08-31T13:22:42;1.53;;;1.43;;
19780;SDS011;10050;55.492;13.506;2023-08-31T13:25:08;1.50;;;1.40;;
19780;SDS011;10050;55.492;13.506;2023-08-31T13:27:34;1.50;;;1.47;;
19780;SDS011;10050;55.492;13.506;2023-08-31T13:29:59;1.47;;;1.37;;
19780;SDS011;10050;55.492;13.506;2023-08-31T13:32:25;1.70;;;1.60;;
19780;SDS011;10050;55.492;13.506;2023-08-31T13:34:51;1.63;;;1.53;;
19780;SDS011;10050;55.492;13.506;2023-08-31T13:37:18;1.83;;;1.73;;
19780;SDS011;10050;55.492;13.506;2023-08-31T13:39:44;1.50;;;1.40;;
19780;SDS011;10050;55.492;13.506;2023-08-31T13:42:10;1.13;;;1.10;;
19780;SDS011;10050;55.492;13.506;2023-08-31T13:44:35;1.20;;;1.10;;
19780;SDS011;10050;55.492;13.506;2023-08-31T13:47:01;1.57;;;1.10;;
19780;SDS011;10050;55.492;13.506;2023-08-31T13:49:28;1.50;;;1.40;;
19780;SDS011;10050;55.492;13.506;2023-08-31T13:51:55;1.23;;;1.13;;
19780;SDS011;10050;55.492;13.506;2023-08-31T13:54:21;1.30;;;1.20;;
19780;SDS011;10050;55.492;13.506;2023-08-31T13:56:46;1.47;;;1.37;;
19780;SDS011;10050;55.492;13.506;2023-08-31T13:59:15;2.13;;;1.70;;
19780;SDS011;10050;55.492;13.506;2023-08-31T14:01:40;1.63;;;1.40;;
19780;SDS011;10050;55.492;13.506;2023-08-31T14:04:06;1.43;;;1.30;;
19780;SDS011;10050;55.492;13.506;2023-08-31T14:06:31;1.40;;;1.30;;
19780;SDS011;10050;55.492;13.506;2023-08-31T14:08:57;1.40;;;1.30;;
19780;SDS011;10050;55.492;13.506;2023-08-31T14:11:23;1.10;;;1.10;;
19780;SDS011;10050;55.492;13.506;2023-08-31T14:13:48;1.53;;;1.30;;
19780;SDS011;10050;55.492;13.506;2023-08-31T14:16:14;1.33;;;1.23;;
19780;SDS011;10050;55.492;13.506;2023-08-31T14:18:40;1.50;;;1.27;;
19780;SDS011;10050;55.492;13.506;2023-08-31T14:21:05;1.90;;;1.70;;
19780;SDS011;10050;55.492;13.506;2023-08-31T14:23:31;1.60;;;1.50;;
19780;SDS011;10050;55.492;13.506;2023-08-31T14:26:01;1.47;;;1.40;;
19780;SDS011;10050;55.492;13.506;2023-08-31T14:28:28;1.43;;;1.37;;
19780;SDS011;10050;55.492;13.506;2023-08-31T14:30:53;2.17;;;1.43;;
19780;SDS011;10050;55.492;13.506;2023-08-31T14:33:19;1.20;;;1.20;;
19780;SDS011;10050;55.492;13.506;2023-08-31T14:35:44;3.40;;;1.50;;
19780;SDS011;10050;55.492;13.506;2023-08-31T14:38:10;1.67;;;1.50;;
19780;SDS011;10050;55.492;13.506;2023-08-31T14:40:38;1.73;;;1.23;;
19780;SDS011;10050;55.492;13.506;2023-08-31T14:43:06;1.40;;;1.30;;
19780;SDS011;10050;55.492;13.506;2023-08-31T14:45:32;1.47;;;1.33;;